map of MLA home
MLA - Airport
Location
City:  Gudja/Luqa, Malta
Near (Alt.):Valletta
Name:Malta International Airport
Old (Alt.):Luqa Airport
ICAO:LMML
IATA:MLA

Details
Type:Airport (Aerodrome, Airfield)
Use:Public/Civil, International (customs port of entry)
Latitude:3551'27"N (35.857497)
Longitude:1428'39"E (14.477500)
Datum:WGS 1984
Elevation:300 ft (91 m)
Variation:3.02E (WMM2015 magnetic declination)
0.09 annual change
Runways:2
Longest:11627 × 197 ft (3544 × 60 m), paved

Time
Time Zone:UTC+1 (DST+2)
Local Time:

Weather
METAR:LMML 140415Z 32006KT 9999 FEW025 12/09 Q1023 NOSIG

Related Locations
Nearby:
Farthest:CHT: 11638 mi / 18730 km
Waitangi [Tuuta], CIT, NZ

Find:

   beyond  
but within

Other Information
Maps:
NOTAMs:
Links:
Sources:

  
flag of Malta   

Airport Diagram

Airport diagram for MLA

Larger airport diagram (OBSOLETE) from NGA

Sectional Chart

Flight Planning
at skyvector.com

Satellite Image

Google Maps Satellite view

 

Copyright © 2004-2017 Karl L. Swartz. All rights reserved.
The Great Circle Mapper name and logo are trademarks of the Great Circle Mapper.
All other trademarks mentioned herein belong to their respective owners.
Please see credits for attibutions and further copyright information.

  Follow gcmap on Facebook Follow gcmap on Twitter Follow gcmap on Google+ GCmap on LinkedIn

hCard Microformat

Geo Microformat